createdAt,value
2022-12-06T03:26:10.114Z,-7.98
2022-12-06T03:27:15.827Z,-8.07
2022-12-06T03:28:20.959Z,-8.04
2022-12-06T03:29:25.679Z,-8.01
2022-12-06T03:30:31.335Z,-7.89
2022-12-06T03:33:58.976Z,-7.77
2022-12-06T03:35:05.078Z,-7.72
2022-12-06T03:36:11.046Z,-7.67
2022-12-06T03:37:16.561Z,-7.65
2022-12-06T03:38:25.064Z,-7.63
2022-12-06T03:39:47.531Z,-7.56
2022-12-06T03:40:52.265Z,-7.66
2022-12-06T03:41:57.267Z,-7.56
2022-12-06T03:42:59.886Z,-7.56
2022-12-06T03:44:01.976Z,-7.57
2022-12-06T03:45:05.448Z,-7.49
2022-12-06T03:46:18.371Z,-7.49
2022-12-06T03:47:26.850Z,-7.46
2022-12-06T03:48:38.510Z,-7.46
2022-12-06T03:49:52.814Z,-7.46
2022-12-06T03:50:58.972Z,-7.49
2022-12-06T03:52:02.074Z,-7.47
2022-12-06T03:53:04.505Z,-7.47
2022-12-06T03:54:08.205Z,-7.45
2022-12-06T03:55:10.356Z,-7.47
2022-12-06T03:56:12.244Z,-7.49
2022-12-06T03:57:14.076Z,-7.48
2022-12-06T03:58:15.803Z,-7.52
2022-12-06T03:59:17.507Z,-7.52
2022-12-06T04:00:20.156Z,-7.54
2022-12-06T04:01:22.209Z,-7.52
2022-12-06T04:02:25.189Z,-7.56
2022-12-06T04:03:27.139Z,-7.59
2022-12-06T04:04:28.951Z,-7.61
2022-12-06T04:05:31.453Z,-7.55
2022-12-06T04:06:33.586Z,-7.59
2022-12-06T04:07:35.778Z,-7.58
2022-12-06T04:08:38.106Z,-7.62
2022-12-06T04:09:39.942Z,-7.76
2022-12-06T04:10:41.746Z,-7.71
2022-12-06T04:11:43.698Z,-7.66
2022-12-06T04:12:45.632Z,-7.66
2022-12-06T04:13:47.652Z,-7.65
2022-12-06T04:14:49.698Z,-7.59
2022-12-06T04:15:57.770Z,-7.58
2022-12-06T04:16:59.964Z,-7.48
2022-12-06T04:18:03.881Z,-7.55
2022-12-06T04:19:05.895Z,-7.55
2022-12-06T04:20:08.350Z,-7.54
2022-12-06T04:21:10.289Z,-7.50
2022-12-06T04:22:11.994Z,-7.47
2022-12-06T04:23:13.816Z,-7.50
2022-12-06T04:24:15.552Z,-7.62
2022-12-06T04:25:17.269Z,-7.60
2022-12-06T04:26:21.773Z,-7.55
2022-12-06T04:27:23.520Z,-7.58
2022-12-06T04:28:25.636Z,-7.62
2022-12-06T04:29:27.300Z,-7.66
2022-12-06T04:30:30.283Z,-7.59
2022-12-06T04:31:32.470Z,-7.58
2022-12-06T04:32:34.509Z,-7.56
2022-12-06T04:33:36.498Z,-7.58
2022-12-06T04:34:38.117Z,-7.59
2022-12-06T04:35:39.737Z,-7.57
2022-12-06T04:36:41.947Z,-7.52
2022-12-06T04:37:43.813Z,-7.47
2022-12-06T04:38:46.077Z,-7.48
2022-12-06T04:39:47.778Z,-7.57
2022-12-06T04:40:49.694Z,-7.54
2022-12-06T04:41:52.200Z,-7.53
2022-12-06T04:42:53.893Z,-7.52
2022-12-06T04:43:55.952Z,-7.58
2022-12-06T04:44:57.902Z,-7.67
2022-12-06T04:45:59.535Z,-7.65
2022-12-06T04:47:01.678Z,-7.63
2022-12-06T04:48:04.647Z,-7.64
2022-12-06T04:49:07.032Z,-7.63
2022-12-06T04:50:09.762Z,-7.66
2022-12-06T04:51:11.963Z,-7.66
2022-12-06T04:52:14.552Z,-7.60
2022-12-06T04:53:16.435Z,-7.62
2022-12-06T04:54:18.176Z,-7.61
2022-12-06T04:55:19.897Z,-7.63
2022-12-06T04:56:22.069Z,-7.59
2022-12-06T04:57:23.873Z,-7.55
2022-12-06T04:58:25.526Z,-7.49
2022-12-06T04:59:27.943Z,-7.54
2022-12-06T05:00:29.949Z,-7.45
2022-12-06T05:01:31.744Z,-7.51
2022-12-06T05:02:33.682Z,-7.61
2022-12-06T05:03:40.873Z,-7.58
2022-12-06T05:04:41.119Z,-7.62
2022-12-06T05:05:44.030Z,-7.60
2022-12-06T05:06:46.436Z,-7.58
2022-12-06T05:07:48.247Z,-7.57
2022-12-06T05:08:50.382Z,-7.54
2022-12-06T05:09:52.592Z,-7.54
2022-12-06T05:10:54.632Z,-7.56
2022-12-06T05:11:56.700Z,-7.53
2022-12-06T05:13:00.699Z,-7.49
2022-12-06T05:14:03.768Z,-7.47
2022-12-06T05:15:06.808Z,-7.45
2022-12-06T05:16:10.029Z,-7.46
2022-12-06T05:17:13.199Z,-7.52
2022-12-06T05:18:15.202Z,-7.55
2022-12-06T05:19:17.793Z,-7.57
2022-12-06T05:20:20.297Z,-7.49
2022-12-06T05:21:24.293Z,-7.63
2022-12-06T05:22:26.316Z,-7.67
2022-12-06T05:23:28.687Z,-7.68
2022-12-06T05:24:31.864Z,-7.64
2022-12-06T05:25:34.010Z,-7.60
2022-12-06T05:26:35.999Z,-7.65
2022-12-06T05:27:37.917Z,-7.68
2022-12-06T05:28:40.534Z,-7.64
2022-12-06T05:29:42.450Z,-7.71
2022-12-06T05:30:45.003Z,-7.76
2022-12-06T05:31:46.978Z,-7.68
2022-12-06T05:32:53.887Z,-7.68
2022-12-06T05:33:54.124Z,-7.62
2022-12-06T05:34:56.736Z,-7.59
2022-12-06T05:36:00.697Z,-7.52
2022-12-06T05:37:02.835Z,-7.42
2022-12-06T05:38:05.231Z,-7.40
2022-12-06T05:39:07.073Z,-7.36
2022-12-06T05:40:10.736Z,-7.28
2022-12-06T05:41:12.619Z,-7.32
2022-12-06T05:42:22.100Z,-7.20
2022-12-06T05:43:19.027Z,-7.20
2022-12-06T05:44:21.129Z,-7.12
2022-12-06T05:45:23.049Z,-7.08
2022-12-06T05:46:25.319Z,-6.96
2022-12-06T05:47:27.282Z,-6.98
2022-12-06T05:48:29.447Z,-6.85
2022-12-06T05:49:31.342Z,-6.78
2022-12-06T05:50:34.306Z,-6.78
2022-12-06T05:51:36.430Z,-6.86
2022-12-06T05:52:38.331Z,-6.96
2022-12-06T05:53:40.180Z,-6.94
2022-12-06T05:54:42.147Z,-6.86
2022-12-06T05:55:44.315Z,-6.78
2022-12-06T05:56:48.689Z,-6.81
2022-12-06T05:57:51.353Z,-6.82
2022-12-06T05:58:53.489Z,-6.86
2022-12-06T05:59:56.295Z,-6.86
2022-12-06T06:00:58.525Z,-6.80
2022-12-06T06:02:00.630Z,-6.79
2022-12-06T06:03:03.772Z,-6.79
2022-12-06T06:04:05.983Z,-6.84
2022-12-06T06:05:08.801Z,-6.79
2022-12-06T06:06:10.910Z,-6.78
2022-12-06T06:07:12.957Z,-6.79
2022-12-06T06:08:18.511Z,-6.86
2022-12-06T06:09:20.483Z,-6.86
2022-12-06T06:10:24.011Z,-6.79
2022-12-06T10:41:19.461Z,-3.59
2022-12-06T10:42:30.838Z,-3.63
2022-12-06T10:43:45.602Z,-3.68
2022-12-06T10:44:52.555Z,-3.62
2022-12-06T10:46:05.761Z,-3.37
2022-12-06T10:47:12.074Z,-3.02
2022-12-06T10:48:30.261Z,-2.76
2022-12-06T10:49:44.910Z,-2.78
2022-12-06T10:50:50.973Z,-2.92
2022-12-06T10:52:03.194Z,-2.83
2022-12-06T10:53:14.926Z,-2.85
2022-12-06T10:54:24.183Z,-3.07
2022-12-06T10:55:30.578Z,-3.09
2022-12-06T10:56:36.603Z,-2.92
2022-12-06T10:57:57.647Z,-3.11
2022-12-06T11:00:25.649Z,-2.97
2022-12-06T11:01:34.827Z,-2.99
2022-12-06T11:02:44.879Z,-2.93
2022-12-06T11:04:05.664Z,-2.82
2022-12-06T11:05:20.625Z,-2.69
2022-12-06T11:06:31.908Z,-2.60
2022-12-06T11:07:37.805Z,-2.59
2022-12-06T11:08:54.529Z,-2.59
2022-12-06T11:09:58.167Z,-2.66
2022-12-06T11:11:04.103Z,-2.85
2022-12-06T11:12:33.389Z,-2.76
2022-12-06T11:13:42.619Z,-2.95
2022-12-06T11:14:48.194Z,-3.03
2022-12-06T11:15:54.494Z,-2.94
2022-12-06T11:17:15.594Z,-2.71
2022-12-06T11:18:17.915Z,-2.84
2022-12-06T11:19:41.387Z,-2.73
2022-12-06T11:21:01.933Z,-2.80
2022-12-06T11:22:13.730Z,-2.85
2022-12-06T11:23:46.780Z,-2.99
2022-12-06T11:24:58.275Z,-3.03
2022-12-06T11:26:19.574Z,-2.94
2022-12-06T11:27:25.740Z,-2.80
2022-12-06T11:28:40.217Z,-2.76
2022-12-06T11:29:44.630Z,-2.73
2022-12-06T11:30:49.631Z,-2.70
2022-12-06T11:31:58.369Z,-2.75
2022-12-06T11:33:02.826Z,-2.68
2022-12-06T11:34:07.970Z,-2.81
2022-12-06T11:35:18.185Z,-2.98
2022-12-06T11:36:22.259Z,-2.80
2022-12-06T11:37:28.272Z,-2.83
2022-12-06T11:38:32.819Z,-2.78
2022-12-06T11:39:35.389Z,-2.79
2022-12-06T11:40:43.763Z,-2.84
2022-12-06T11:41:49.349Z,-2.78
2022-12-06T11:42:52.474Z,-2.72
2022-12-06T11:43:57.420Z,-2.55
2022-12-06T11:45:12.194Z,-2.51
2022-12-06T11:46:15.095Z,-2.72
2022-12-06T11:47:21.526Z,-2.67
2022-12-06T11:48:26.921Z,-2.75
2022-12-06T11:49:38.565Z,-2.64
2022-12-06T11:50:42.564Z,-2.88
2022-12-06T11:51:44.727Z,-2.67
2022-12-06T11:53:05.588Z,-2.61
2022-12-06T11:54:20.501Z,-2.46
2022-12-06T11:56:39.378Z,-2.41
2022-12-06T11:57:50.857Z,-2.73
2022-12-06T11:59:04.909Z,-2.63
2022-12-06T12:00:22.667Z,-2.47
2022-12-06T12:01:43.632Z,-2.59
2022-12-06T12:02:47.727Z,-2.61
2022-12-06T12:03:49.956Z,-2.55
2022-12-06T12:04:53.039Z,-2.62
2022-12-06T12:06:22.002Z,-2.65
2022-12-06T12:07:26.054Z,-2.60
2022-12-06T12:08:32.429Z,-2.57
2022-12-06T12:09:47.205Z,-2.51
2022-12-06T12:11:00.983Z,-2.45
2022-12-06T12:12:06.893Z,-2.31
2022-12-06T12:13:18.535Z,-2.19
2022-12-06T12:14:30.370Z,-2.28
2022-12-06T12:15:33.892Z,-2.24
2022-12-06T12:16:38.933Z,-2.29
2022-12-06T12:17:45.075Z,-2.10
2022-12-06T12:19:03.443Z,-2.38
2022-12-06T12:20:09.457Z,-2.13
2022-12-06T12:21:12.122Z,-2.23
2022-12-06T12:22:18.729Z,-2.31
2022-12-06T12:23:24.331Z,-2.39
2022-12-06T12:25:17.448Z,-2.47
2022-12-06T12:26:06.102Z,-2.37
2022-12-06T12:27:31.503Z,-2.29
2022-12-06T12:28:34.431Z,-2.31
2022-12-06T12:29:36.488Z,-2.16
2022-12-06T12:30:39.946Z,-2.33
2022-12-06T12:31:54.367Z,-2.47
2022-12-06T12:33:09.114Z,-2.61
2022-12-06T12:34:20.824Z,-2.50
2022-12-06T12:35:25.131Z,-2.44
2022-12-06T12:36:29.580Z,-2.39
2022-12-06T12:37:31.940Z,-2.32
2022-12-06T12:38:55.651Z,-2.27
2022-12-06T12:39:58.050Z,-2.12
2022-12-06T12:41:06.616Z,-2.18
2022-12-06T12:42:29.538Z,-2.27
2022-12-06T12:43:33.176Z,-2.28
2022-12-06T12:44:40.012Z,-2.36
2022-12-06T12:46:12.074Z,-2.25
2022-12-06T12:47:18.247Z,-2.21
2022-12-06T12:48:26.673Z,-2.22
2022-12-06T12:49:37.594Z,-2.21
2022-12-06T12:50:43.213Z,-2.19
2022-12-06T12:51:48.066Z,-2.15
2022-12-06T12:52:51.650Z,-2.07
2022-12-06T12:54:03.028Z,-2.06
2022-12-06T12:55:20.299Z,-2.09
2022-12-06T12:56:22.528Z,-1.95
2022-12-06T12:57:24.546Z,-2.18
2022-12-06T12:58:27.272Z,-2.30
2022-12-06T12:59:39.246Z,-2.30
2022-12-06T13:00:44.999Z,-2.35
2022-12-06T13:01:59.863Z,-2.37
2022-12-06T13:03:14.185Z,-2.27
2022-12-06T13:04:33.104Z,-2.28
2022-12-06T13:05:44.893Z,-2.28
2022-12-06T13:07:01.037Z,-2.12
2022-12-06T13:08:21.713Z,-2.16
2022-12-06T13:09:30.215Z,-2.32
2022-12-06T13:10:36.567Z,-2.23
2022-12-06T13:11:42.268Z,-2.23
2022-12-06T13:12:55.861Z,-2.35
2022-12-06T13:14:00.135Z,-2.49
2022-12-06T13:15:22.333Z,-2.45
2022-12-06T13:16:30.877Z,-2.57
2022-12-06T13:17:36.684Z,-2.55
2022-12-06T13:18:42.353Z,-2.52
2022-12-06T13:19:53.045Z,-2.49
2022-12-06T13:20:54.430Z,-2.43
2022-12-06T13:21:57.649Z,-2.54
2022-12-06T13:23:09.448Z,-2.67
2022-12-06T13:24:26.924Z,-2.80
2022-12-06T13:25:30.611Z,-2.85
2022-12-06T13:26:38.250Z,-2.95
2022-12-06T13:27:44.722Z,-3.02
2022-12-06T13:28:50.497Z,-3.08
2022-12-06T13:29:59.538Z,-3.15
2022-12-06T13:31:05.989Z,-3.24
2022-12-06T13:32:14.770Z,-3.40
2022-12-06T13:33:21.454Z,-3.45
2022-12-06T13:34:38.021Z,-3.51
2022-12-06T13:35:46.524Z,-3.41
2022-12-06T13:36:48.742Z,-3.65
2022-12-06T13:38:22.659Z,-3.81
2022-12-06T13:39:28.121Z,-3.67
2022-12-06T13:40:36.642Z,-3.57
2022-12-06T13:41:42.779Z,-3.67
2022-12-06T13:42:45.831Z,-3.74
2022-12-06T13:43:49.193Z,-3.78
2022-12-06T13:44:54.696Z,-3.78
2022-12-06T13:46:15.390Z,-3.75
2022-12-06T13:47:30.847Z,-3.61
2022-12-06T13:48:53.879Z,-3.73
2022-12-06T13:49:59.489Z,-3.89
2022-12-06T13:51:04.919Z,-4.05
2022-12-06T13:52:06.953Z,-4.03
2022-12-06T13:53:09.049Z,-4.06
2022-12-06T13:54:20.565Z,-4.06
2022-12-06T13:55:29.573Z,-4.05
2022-12-06T13:56:36.157Z,-4.11
2022-12-06T13:57:39.207Z,-4.14
2022-12-06T13:58:45.985Z,-4.15
2022-12-06T13:59:49.448Z,-4.06
2022-12-06T14:00:53.918Z,-4.07
2022-12-06T14:01:56.991Z,-4.22
2022-12-06T14:03:02.613Z,-4.30
2022-12-06T14:07:00.326Z,-4.19
2022-12-06T14:08:02.316Z,-4.23
2022-12-06T14:09:08.206Z,-4.28
2022-12-06T14:10:13.305Z,-4.32
2022-12-06T14:11:22.366Z,-4.37
2022-12-06T14:12:27.796Z,-4.40
2022-12-06T14:13:29.724Z,-4.42
2022-12-06T14:14:31.903Z,-4.52
2022-12-06T14:15:33.806Z,-4.51
2022-12-06T14:16:55.394Z,-4.53
2022-12-06T14:18:05.569Z,-4.55
2022-12-06T14:19:23.832Z,-4.66
2022-12-06T14:20:28.912Z,-4.64
2022-12-06T14:21:35.737Z,-4.55
2022-12-06T14:22:37.999Z,-4.56
2022-12-06T14:23:46.141Z,-4.52
2022-12-06T14:25:00.652Z,-4.43
2022-12-06T14:26:21.572Z,-4.37
2022-12-06T14:27:25.037Z,-4.34
2022-12-06T14:28:30.838Z,-4.47
2022-12-06T14:29:33.210Z,-4.41
2022-12-06T14:30:35.559Z,-4.45
2022-12-06T14:31:38.819Z,-4.58
2022-12-06T14:32:44.987Z,-4.62
2022-12-06T14:33:47.468Z,-4.73
2022-12-06T14:34:49.229Z,-4.84
2022-12-06T14:35:54.672Z,-4.88
2022-12-06T14:36:59.253Z,-4.98
2022-12-06T14:38:23.300Z,-5.03
2022-12-06T14:39:31.625Z,-5.01
2022-12-06T18:18:36.884Z,-4.99
2022-12-06T18:19:38.853Z,-5.09
2022-12-06T18:20:42.064Z,-5.06
2022-12-06T18:21:45.136Z,-5.04
2022-12-06T18:22:47.138Z,-4.95
2022-12-06T18:24:19.917Z,-4.86
2022-12-06T18:24:53.524Z,-4.74
2022-12-06T18:25:55.159Z,-4.65
2022-12-06T18:26:58.331Z,-4.59
2022-12-06T18:28:01.183Z,-4.47
2022-12-06T18:29:05.030Z,-4.33
2022-12-06T18:30:09.351Z,-4.26
2022-12-06T18:31:13.308Z,-4.14
2022-12-06T18:32:16.696Z,-4.19
2022-12-06T18:33:23.358Z,-4.12
2022-12-06T18:34:25.079Z,-4.05
2022-12-06T18:35:29.457Z,-3.97
2022-12-06T18:36:32.574Z,-3.89
2022-12-06T18:37:35.986Z,-3.87
2022-12-06T18:38:41.645Z,-3.92
2022-12-06T18:39:45.262Z,-3.81
2022-12-06T18:40:47.483Z,-3.85
2022-12-06T18:41:51.064Z,-3.86
2022-12-06T18:42:54.526Z,-3.93
2022-12-06T18:44:03.249Z,-4.01
2022-12-06T18:45:06.840Z,-3.93
2022-12-06T18:46:14.582Z,-4.01
2022-12-06T18:47:17.361Z,-4.01
2022-12-06T18:48:19.162Z,-4.14
2022-12-06T18:49:21.472Z,-4.11
2022-12-06T18:50:23.273Z,-4.04
2022-12-06T18:51:29.406Z,-4.05
2022-12-06T18:52:31.465Z,-3.89
2022-12-06T18:53:35.494Z,-3.92
2022-12-06T18:54:38.356Z,-4.01
2022-12-06T18:55:41.831Z,-3.90
2022-12-06T18:56:47.348Z,-3.81
2022-12-06T18:57:50.951Z,-3.89
2022-12-06T18:58:53.592Z,-3.82
2022-12-06T18:59:58.688Z,-3.88
2022-12-06T19:01:09.630Z,-3.83
2022-12-06T19:02:12.820Z,-3.79
2022-12-06T19:03:14.933Z,-3.87
2022-12-06T19:04:16.877Z,-3.77
2022-12-06T19:05:27.796Z,-3.92
2022-12-06T19:06:25.675Z,-3.92
2022-12-06T19:07:28.500Z,-3.94
2022-12-06T19:08:31.069Z,-3.94
2022-12-06T19:09:33.100Z,-3.89
2022-12-06T19:10:35.396Z,-4.02
2022-12-06T19:11:40.776Z,-3.92
2022-12-06T19:12:42.832Z,-3.83
2022-12-06T19:13:53.600Z,-3.73
2022-12-06T19:14:55.582Z,-3.69
2022-12-06T19:16:03.575Z,-3.85
2022-12-06T19:17:08.988Z,-3.84
2022-12-06T19:18:11.474Z,-3.81
2022-12-06T19:19:17.254Z,-3.70
2022-12-06T19:20:19.703Z,-3.71
2022-12-06T19:21:22.902Z,-3.75
2022-12-06T19:22:26.810Z,-3.81
2022-12-06T19:23:29.941Z,-3.79
2022-12-06T19:24:32.494Z,-3.74
2022-12-06T19:25:34.862Z,-3.58
2022-12-06T19:26:36.863Z,-3.53
2022-12-06T19:27:39.486Z,-3.49
2022-12-06T19:28:41.845Z,-3.47
2022-12-06T19:29:43.660Z,-3.45
2022-12-06T19:30:49.741Z,-3.48
2022-12-06T19:31:52.205Z,-3.39
2022-12-06T19:32:54.001Z,-3.58
2022-12-06T19:33:56.315Z,-3.70
2022-12-06T19:34:59.754Z,-3.96
2022-12-06T19:36:06.343Z,-4.10
2022-12-06T19:37:08.701Z,-4.01
2022-12-06T19:38:11.603Z,-4.21
2022-12-06T19:39:13.527Z,-4.21
2022-12-06T19:40:16.566Z,-4.07
2022-12-06T19:41:19.105Z,-4.08
2022-12-06T19:42:22.390Z,-4.05
2022-12-06T19:43:27.577Z,-4.13
2022-12-06T19:44:30.151Z,-4.26
2022-12-06T19:45:32.946Z,-4.39
2022-12-06T19:46:36.680Z,-4.46
2022-12-06T19:47:39.778Z,-4.53
2022-12-06T19:48:43.101Z,-4.55
2022-12-06T19:49:46.001Z,-4.48
2022-12-06T19:50:48.570Z,-4.54
2022-12-06T19:51:50.900Z,-4.61
2022-12-06T19:52:54.904Z,-4.47
2022-12-06T19:53:58.292Z,-4.45
2022-12-06T19:55:01.806Z,-4.41
2022-12-06T19:56:07.403Z,-4.40
2022-12-06T19:57:09.353Z,-4.36
2022-12-06T19:58:11.186Z,-4.31
2022-12-06T19:59:14.792Z,-4.49
2022-12-06T20:00:22.475Z,-4.37
2022-12-06T20:01:24.334Z,-4.50
2022-12-06T20:02:26.550Z,-4.63
2022-12-06T20:03:28.944Z,-4.56
2022-12-06T20:04:34.621Z,-4.41
2022-12-06T20:05:36.983Z,-4.44
2022-12-06T20:06:38.806Z,-4.39
2022-12-06T20:07:41.113Z,-4.37
2022-12-06T20:08:44.019Z,-4.24
2022-12-06T20:09:45.902Z,-4.40
2022-12-06T20:10:56.360Z,-4.36
2022-12-06T20:11:59.970Z,-4.37
2022-12-06T20:13:02.387Z,-4.45
2022-12-06T20:14:07.846Z,-4.35
2022-12-06T20:15:10.743Z,-4.34
2022-12-06T20:16:13.086Z,-4.41
2022-12-06T20:17:22.860Z,-4.42
2022-12-06T20:18:25.140Z,-4.37
2022-12-06T20:19:27.026Z,-4.34
2022-12-06T20:20:29.459Z,-4.36
2022-12-06T20:21:31.174Z,-4.27
2022-12-06T20:22:34.124Z,-4.22
2022-12-06T20:23:36.769Z,-4.13
2022-12-06T20:24:39.368Z,-4.19
2022-12-06T20:25:41.069Z,-4.19
2022-12-06T20:26:45.097Z,-4.41
2022-12-06T20:27:48.056Z,-4.50
2022-12-06T20:28:49.777Z,-4.38
2022-12-06T20:29:52.616Z,-4.34
2022-12-06T20:30:56.800Z,-4.27
2022-12-06T20:31:59.823Z,-4.24
2022-12-06T20:33:01.709Z,-4.31
2022-12-06T20:34:10.147Z,-4.37
2022-12-06T20:35:09.782Z,-4.63
2022-12-06T20:36:14.217Z,-4.82
2022-12-06T20:37:17.128Z,-4.72
2022-12-06T20:38:18.829Z,-4.70
2022-12-06T20:39:26.115Z,-4.61
2022-12-06T20:40:31.601Z,-4.69
2022-12-06T20:41:33.171Z,-4.77
2022-12-06T20:42:36.089Z,-4.73
2022-12-06T20:43:41.902Z,-4.83
2022-12-06T20:44:44.422Z,-5.04
2022-12-06T20:45:46.984Z,-5.01
2022-12-06T20:46:49.819Z,-5.07
2022-12-06T20:47:52.897Z,-4.99
2022-12-06T20:48:56.698Z,-4.92
2022-12-06T20:49:59.080Z,-4.94
2022-12-06T20:51:05.378Z,-5.08
2022-12-06T20:52:07.404Z,-5.02
2022-12-06T20:53:09.549Z,-4.90
2022-12-06T20:54:18.863Z,-4.90
2022-12-06T20:55:21.001Z,-4.92
2022-12-06T21:01:40.920Z,-5.31
2022-12-06T21:02:44.095Z,-5.21
2022-12-06T21:03:52.651Z,-5.12
2022-12-06T21:04:54.955Z,-5.23
2022-12-06T21:06:03.709Z,-5.24
2022-12-06T21:07:05.961Z,-5.32
2022-12-06T21:08:08.043Z,-5.49
2022-12-06T21:09:10.731Z,-5.44
2022-12-06T21:10:13.811Z,-5.41
2022-12-06T21:11:24.962Z,-5.41
2022-12-06T21:12:21.385Z,-5.42
2022-12-06T21:13:24.224Z,-5.47
2022-12-06T21:14:26.584Z,-5.36
2022-12-06T21:15:28.909Z,-5.41
2022-12-06T21:16:33.282Z,-5.39
2022-12-06T21:17:35.395Z,-5.48
2022-12-06T21:18:38.257Z,-5.46
2022-12-06T21:19:41.464Z,-5.44
2022-12-06T21:20:43.353Z,-5.43
2022-12-06T21:21:50.739Z,-5.38
2022-12-06T21:22:52.527Z,-5.38
2022-12-06T21:23:54.564Z,-5.31
2022-12-06T21:24:57.392Z,-5.22
2022-12-06T21:26:04.091Z,-5.20
2022-12-06T21:27:06.038Z,-5.21
2022-12-06T21:28:08.742Z,-5.17
2022-12-06T21:29:18.570Z,-5.20
2022-12-06T21:30:20.610Z,-5.17
2022-12-06T21:31:34.288Z,-5.12
2022-12-06T21:32:36.454Z,-5.17
2022-12-06T21:33:38.876Z,-5.25
2022-12-06T21:34:46.262Z,-5.19
2022-12-06T21:35:45.772Z,-5.25
2022-12-06T21:36:49.062Z,-5.24
2022-12-06T21:37:51.045Z,-5.16
2022-12-06T21:38:53.496Z,-5.04
2022-12-06T21:39:56.240Z,-4.96
2022-12-06T21:42:17.646Z,-4.99
2022-12-06T21:43:21.733Z,-5.23
2022-12-06T21:44:23.818Z,-5.27
2022-12-06T21:45:25.633Z,-5.21
2022-12-06T21:46:27.712Z,-5.21
2022-12-06T21:47:30.699Z,-5.39
2022-12-06T21:48:33.131Z,-5.40
2022-12-06T21:49:35.961Z,-5.38
2022-12-06T21:50:38.292Z,-5.35
2022-12-06T21:51:39.934Z,-5.43
2022-12-06T21:52:41.581Z,-5.52
2022-12-06T21:53:43.608Z,-5.53
2022-12-06T21:54:45.536Z,-5.50
2022-12-06T21:55:48.378Z,-5.58
2022-12-06T21:56:51.548Z,-5.63
2022-12-06T21:57:54.670Z,-5.69
2022-12-06T21:58:56.783Z,-5.56
2022-12-06T21:59:59.228Z,-5.50
2022-12-06T22:01:10.965Z,-5.62
2022-12-06T22:02:13.093Z,-5.57
2022-12-06T22:03:20.929Z,-5.81
2022-12-06T22:04:18.878Z,-5.83
2022-12-06T22:05:22.114Z,-5.84
2022-12-06T22:06:26.015Z,-6.00
2022-12-06T22:07:29.202Z,-5.99
2022-12-06T22:08:31.569Z,-5.89
2022-12-06T22:09:34.704Z,-5.77
2022-12-06T22:10:39.402Z,-5.75
2022-12-06T22:11:41.561Z,-5.71
2022-12-06T22:12:46.602Z,-5.80
2022-12-06T22:13:48.512Z,-5.77
2022-12-06T22:14:51.265Z,-5.76
2022-12-06T22:15:53.120Z,-5.71
2022-12-06T22:16:55.277Z,-5.69
2022-12-06T22:17:57.096Z,-5.75
2022-12-06T22:18:58.876Z,-5.83
